createdAt,value
2022-09-13T00:02:43.326Z,2.30
2022-09-13T00:05:45.995Z,2.37
2022-09-13T00:08:49.252Z,2.37
2022-09-13T00:11:52.289Z,2.33
2022-09-13T00:14:54.285Z,2.10
2022-09-13T00:17:56.475Z,1.90
2022-09-13T00:21:10.039Z,2.07
2022-09-13T00:24:11.894Z,1.40
2022-09-13T00:27:13.909Z,1.90
2022-09-13T00:30:15.803Z,2.13
2022-09-13T00:33:18.204Z,2.10
2022-09-13T00:36:20.468Z,2.27
2022-09-13T00:39:23.150Z,2.23
2022-09-13T00:42:29.854Z,1.93
2022-09-13T00:45:32.081Z,1.90
2022-09-13T00:48:35.404Z,2.10
2022-09-13T00:51:37.802Z,2.07
2022-09-13T00:54:43.719Z,2.20
2022-09-13T00:57:46.162Z,2.40
2022-09-13T01:00:48.700Z,2.00
2022-09-13T01:03:51.174Z,1.70
2022-09-13T01:06:56.196Z,1.70
2022-09-13T01:09:58.215Z,1.90
2022-09-13T01:13:19.126Z,1.80
2022-09-13T01:16:22.226Z,1.90
2022-09-13T01:19:24.364Z,1.80
2022-09-13T01:22:37.845Z,1.70
2022-09-13T01:25:42.869Z,1.70
2022-09-13T01:28:56.991Z,2.00
2022-09-13T01:32:46.837Z,2.23
2022-09-13T01:36:16.024Z,1.90
2022-09-13T01:39:33.079Z,1.60
2022-09-13T01:42:53.810Z,1.70
2022-09-13T01:46:04.584Z,1.97
2022-09-13T01:49:20.286Z,2.40
2022-09-13T01:52:51.400Z,2.80
2022-09-13T01:56:04.793Z,2.50
2022-09-13T01:59:29.729Z,1.97
2022-09-13T02:02:48.986Z,1.90
2022-09-13T02:06:00.650Z,1.47
2022-09-13T02:09:09.449Z,1.93
2022-09-13T02:12:16.485Z,1.60
2022-09-13T02:15:28.775Z,2.00
2022-09-13T02:18:35.481Z,1.77
2022-09-13T02:21:40.904Z,1.87
2022-09-13T02:24:46.284Z,2.07
2022-09-13T02:27:53.225Z,2.00
2022-09-13T02:30:58.317Z,1.77
2022-09-13T02:34:16.603Z,1.60
2022-09-13T02:37:20.101Z,1.50
2022-09-13T02:40:27.769Z,1.60
2022-09-13T02:43:40.250Z,2.80
2022-09-13T02:47:29.592Z,1.60
2022-09-13T02:51:06.616Z,1.87
2022-09-13T02:54:20.774Z,2.07
2022-09-13T02:57:33.034Z,1.80
2022-09-13T03:00:35.385Z,2.00
2022-09-13T03:03:37.434Z,1.90
2022-09-13T03:06:41.400Z,1.90
2022-09-13T03:09:49.240Z,1.50
2022-09-13T03:13:10.180Z,1.70
2022-09-13T03:16:28.370Z,1.50
2022-09-13T03:20:10.913Z,1.60
2022-09-13T03:23:44.665Z,1.50
2022-09-13T03:26:56.870Z,1.50
2022-09-13T03:30:10.110Z,1.93
2022-09-13T03:33:29.146Z,1.57
2022-09-13T03:36:46.879Z,1.50
2022-09-13T03:40:00.974Z,1.43
2022-09-13T03:43:12.093Z,1.80
2022-09-13T03:46:24.265Z,1.63
2022-09-13T03:49:27.549Z,1.40
2022-09-13T03:52:30.136Z,1.70
2022-09-13T03:55:33.255Z,1.50
2022-09-13T03:58:35.209Z,1.50
2022-09-13T04:01:37.669Z,1.80
2022-09-13T04:04:41.551Z,1.50
2022-09-13T04:07:43.704Z,1.73
2022-09-13T04:10:46.244Z,1.60
2022-09-13T04:13:48.500Z,1.87
2022-09-13T04:16:50.816Z,1.47
2022-09-13T04:19:52.927Z,1.50
2022-09-13T04:22:56.324Z,1.40
2022-09-13T04:26:06.826Z,1.50
2022-09-13T04:29:09.305Z,1.50
2022-09-13T04:32:11.944Z,1.57
2022-09-13T04:35:18.299Z,1.40
2022-09-13T04:38:20.430Z,1.23
2022-09-13T04:41:22.535Z,1.37
2022-09-13T04:44:24.795Z,1.67
2022-09-13T04:47:26.939Z,1.60
2022-09-13T04:50:29.833Z,1.40
2022-09-13T04:53:33.155Z,1.30
2022-09-13T04:56:35.064Z,1.50
2022-09-13T04:59:39.079Z,1.50
2022-09-13T05:02:40.920Z,1.20
2022-09-13T05:05:42.839Z,1.50
2022-09-13T05:08:45.405Z,1.40
2022-09-13T05:11:47.637Z,1.17
2022-09-13T05:14:49.501Z,1.73
2022-09-13T05:17:51.404Z,1.67
2022-09-13T05:20:57.644Z,1.30
2022-09-13T05:23:59.860Z,1.50
2022-09-13T05:27:01.728Z,1.17
2022-09-13T05:30:05.155Z,1.70
2022-09-13T05:33:07.579Z,1.80
2022-09-13T05:36:09.730Z,1.80
2022-09-13T05:39:31.925Z,1.27
2022-09-13T05:42:41.291Z,1.10
2022-09-13T05:45:43.780Z,1.50
2022-09-13T05:48:46.634Z,1.30
2022-09-13T05:51:48.864Z,1.30
2022-09-13T05:54:51.048Z,1.70
2022-09-13T05:57:53.146Z,1.40
2022-09-13T06:00:56.254Z,1.70
2022-09-13T06:03:59.477Z,1.80
2022-09-13T06:07:01.753Z,1.23
2022-09-13T06:10:05.652Z,1.40
2022-09-13T06:13:08.324Z,1.43
2022-09-13T06:16:12.935Z,1.43
2022-09-13T06:19:15.236Z,1.10
2022-09-13T06:22:17.256Z,1.40
2022-09-13T06:25:24.216Z,1.27
2022-09-13T06:28:36.655Z,1.53
2022-09-13T06:31:44.265Z,1.53
2022-09-13T06:34:46.390Z,1.10
2022-09-13T06:37:49.080Z,1.07
2022-09-13T06:41:00.843Z,1.30
2022-09-13T06:44:03.951Z,1.53
2022-09-13T06:47:06.205Z,1.67
2022-09-13T06:50:10.181Z,1.40
2022-09-13T06:53:13.261Z,1.20
2022-09-13T06:56:21.517Z,0.90
2022-09-13T06:59:23.559Z,1.07
2022-09-13T07:02:26.083Z,1.10
2022-09-13T07:05:28.274Z,0.90
2022-09-13T07:08:30.448Z,1.03
2022-09-13T07:11:38.829Z,0.93
2022-09-13T07:14:41.044Z,1.03
2022-09-13T07:17:43.296Z,0.87
2022-09-13T07:20:45.489Z,0.90
2022-09-13T07:23:47.591Z,0.87
2022-09-13T07:26:50.315Z,0.90
2022-09-13T07:29:52.915Z,0.83
2022-09-13T07:32:55.195Z,1.03
2022-09-13T07:35:58.394Z,0.90
2022-09-13T07:39:01.957Z,0.90
2022-09-13T07:42:04.245Z,1.00
2022-09-13T07:45:07.129Z,1.00
2022-09-13T07:48:08.995Z,0.80
2022-09-13T07:51:13.504Z,0.83
2022-09-13T07:54:18.082Z,0.70
2022-09-13T07:57:21.199Z,0.77
2022-09-13T08:00:24.751Z,0.60
2022-09-13T08:03:28.289Z,0.60
2022-09-13T08:06:32.350Z,0.70
2022-09-13T08:09:34.854Z,0.97
2022-09-13T08:12:37.095Z,0.63
2022-09-13T08:15:39.650Z,0.90
2022-09-13T08:18:46.426Z,0.85
2022-09-13T08:21:48.554Z,0.98
2022-09-13T08:24:50.965Z,0.73
2022-09-13T08:27:53.176Z,0.60
2022-09-13T08:30:55.298Z,0.80
2022-09-13T08:33:58.229Z,0.95
2022-09-13T08:37:00.471Z,0.88
2022-09-13T08:40:03.202Z,0.80
2022-09-13T08:43:15.934Z,0.70
2022-09-13T08:46:25.894Z,0.80
2022-09-13T08:49:35.319Z,1.10
2022-09-13T08:53:15.084Z,0.77
2022-09-13T08:56:43.401Z,0.80
2022-09-13T09:00:05.845Z,0.70
2022-09-13T09:03:30.385Z,0.60
2022-09-13T09:06:36.106Z,0.68
2022-09-13T09:10:14.905Z,0.85
2022-09-13T09:13:29.253Z,0.68
2022-09-13T09:16:54.385Z,0.70
2022-09-13T09:20:18.007Z,0.50
2022-09-13T09:23:39.323Z,0.60
2022-09-13T09:26:41.438Z,0.70
2022-09-13T09:29:46.749Z,0.70
2022-09-13T09:33:05.076Z,0.50
2022-09-13T09:36:19.439Z,0.70
2022-09-13T09:39:21.389Z,0.60
2022-09-13T09:42:27.260Z,0.70
2022-09-13T09:45:31.982Z,0.52
2022-09-13T09:48:44.624Z,0.50
2022-09-13T09:51:46.982Z,0.65
2022-09-13T09:54:50.119Z,0.60
2022-09-13T09:58:07.138Z,1.00
2022-09-13T10:01:20.766Z,0.70
2022-09-13T10:04:23.278Z,0.60
2022-09-13T10:07:33.142Z,0.63
2022-09-13T10:10:44.810Z,0.50
2022-09-13T10:14:03.730Z,0.73
2022-09-13T10:17:25.639Z,0.65
2022-09-13T10:20:27.536Z,0.65
2022-09-13T10:23:30.994Z,0.63
2022-09-13T10:26:34.354Z,0.88
2022-09-13T10:29:36.827Z,0.88
2022-09-13T10:32:38.786Z,0.65
2022-09-13T10:35:41.153Z,0.50
2022-09-13T10:38:58.370Z,0.70
2022-09-13T10:42:09.610Z,0.60
2022-09-13T10:45:23.603Z,0.95
2022-09-13T10:48:25.829Z,0.70
2022-09-13T10:51:27.660Z,1.00
2022-09-13T10:54:29.583Z,0.68
2022-09-13T10:57:37.454Z,0.93
2022-09-13T11:01:03.630Z,0.60
2022-09-13T11:04:43.994Z,0.63
2022-09-13T11:08:11.587Z,0.77
2022-09-13T11:11:42.714Z,0.85
2022-09-13T11:15:06.489Z,0.70
2022-09-13T11:18:26.814Z,0.63
2022-09-13T11:22:16.180Z,0.60
2022-09-13T11:25:18.418Z,0.88
2022-09-13T11:28:49.115Z,0.68
2022-09-13T11:32:16.049Z,0.70
2022-09-13T11:35:43.504Z,0.70
2022-09-13T11:39:18.125Z,1.00
2022-09-13T11:42:44.028Z,0.70
2022-09-13T11:46:07.563Z,0.90
2022-09-13T11:49:19.469Z,0.65
2022-09-13T11:52:33.105Z,0.75
2022-09-13T11:55:49.129Z,0.82
2022-09-13T11:58:54.298Z,0.55
2022-09-13T12:02:01.469Z,0.55
2022-09-13T12:05:22.993Z,0.90
2022-09-13T12:08:51.867Z,0.90
2022-09-13T12:11:58.886Z,0.80
2022-09-13T12:15:06.351Z,0.60
2022-09-13T12:18:26.547Z,0.70
2022-09-13T12:21:37.230Z,0.80
2022-09-13T12:24:42.881Z,0.80
2022-09-13T12:28:07.830Z,0.80
2022-09-13T12:31:22.407Z,0.77
2022-09-13T12:34:36.055Z,0.82
2022-09-13T12:37:45.906Z,1.08
2022-09-13T12:41:13.364Z,0.85
2022-09-13T12:44:29.489Z,0.80
2022-09-13T12:47:46.741Z,0.70
2022-09-13T12:51:00.658Z,0.80
2022-09-13T12:54:21.753Z,0.80
2022-09-13T12:57:40.087Z,0.65
2022-09-13T13:00:50.275Z,0.85
2022-09-13T13:03:53.722Z,0.80
2022-09-13T13:07:03.630Z,0.75
2022-09-13T13:10:06.734Z,0.70
2022-09-13T13:13:25.393Z,0.90
2022-09-13T13:16:40.938Z,0.77
2022-09-13T13:19:45.096Z,0.80
2022-09-13T13:22:49.768Z,0.73
2022-09-13T13:26:23.811Z,0.80
2022-09-13T13:29:30.723Z,0.90
2022-09-13T13:32:32.690Z,0.80
2022-09-13T13:35:34.589Z,0.70
2022-09-13T13:38:42.899Z,0.80
2022-09-13T13:41:54.405Z,0.60
2022-09-13T13:45:06.975Z,0.60
2022-09-13T13:48:08.980Z,0.85
2022-09-13T13:51:24.446Z,0.65
2022-09-13T13:54:32.012Z,0.82
2022-09-13T13:58:01.982Z,0.80
2022-09-13T14:01:06.676Z,0.70
2022-09-13T14:04:30.303Z,0.80
2022-09-13T14:11:47.874Z,0.60
2022-09-13T14:15:17.520Z,0.80
2022-09-13T14:18:42.230Z,0.88
2022-09-13T14:21:45.300Z,0.57
2022-09-13T14:24:52.740Z,1.10
2022-09-13T14:27:57.269Z,0.75
2022-09-13T14:30:59.765Z,0.80
2022-09-13T14:34:02.341Z,0.90
2022-09-13T14:37:17.660Z,0.80
2022-09-13T14:40:29.858Z,0.70
2022-09-13T14:43:31.885Z,0.75
2022-09-13T14:46:39.679Z,0.60
2022-09-13T14:49:49.252Z,0.98
2022-09-13T14:53:00.339Z,1.00
2022-09-13T14:56:06.776Z,0.90
2022-09-13T14:59:58.109Z,0.80
2022-09-13T15:03:04.019Z,0.98
2022-09-13T15:06:06.315Z,0.73
2022-09-13T15:09:11.846Z,1.00
2022-09-13T15:12:25.970Z,0.90
2022-09-13T15:15:38.445Z,1.05
2022-09-13T15:18:40.393Z,0.93
2022-09-13T15:21:42.563Z,0.90
2022-09-13T15:24:54.473Z,0.85
2022-09-13T15:27:57.425Z,1.00
2022-09-13T15:31:01.719Z,0.90
2022-09-13T15:34:24.163Z,1.00
2022-09-13T15:37:35.350Z,0.80
2022-09-13T15:40:49.000Z,0.90
2022-09-13T15:43:51.344Z,1.00
2022-09-13T15:46:54.179Z,0.90
2022-09-13T15:49:56.395Z,0.90
2022-09-13T15:52:59.534Z,0.70
2022-09-13T15:56:02.959Z,0.82
2022-09-13T15:59:05.080Z,0.80
2022-09-13T16:02:20.836Z,1.08
2022-09-13T16:05:22.866Z,0.90
2022-09-13T16:08:25.244Z,1.00
2022-09-13T16:11:28.239Z,0.77
2022-09-13T16:14:30.453Z,0.75
2022-09-13T16:17:32.975Z,0.80
2022-09-13T16:20:35.019Z,1.10
2022-09-13T16:23:36.936Z,1.02
2022-09-13T16:26:39.730Z,1.30
2022-09-13T16:29:43.177Z,1.13
2022-09-13T16:32:45.089Z,1.20
2022-09-13T16:35:47.716Z,1.20
2022-09-13T16:38:49.935Z,1.20
2022-09-13T16:41:51.904Z,1.00
2022-09-13T16:44:53.794Z,1.10
2022-09-13T16:47:56.339Z,1.00
2022-09-13T16:51:09.277Z,0.90
2022-09-13T16:54:11.236Z,0.90
2022-09-13T16:57:14.244Z,0.98
2022-09-13T17:00:17.659Z,1.20
2022-09-13T17:03:19.569Z,0.80
2022-09-13T17:06:23.065Z,1.75
2022-09-13T17:09:27.703Z,0.75
2022-09-13T17:12:30.189Z,1.05
2022-09-13T17:15:32.044Z,1.00
2022-09-13T17:18:34.544Z,0.80
2022-09-13T17:21:36.903Z,1.00
2022-09-13T17:24:39.286Z,0.90
2022-09-13T17:27:41.188Z,0.82
2022-09-13T17:30:44.145Z,0.95
2022-09-13T17:33:46.287Z,1.25
2022-09-13T17:36:51.201Z,1.00
2022-09-13T17:39:53.387Z,1.08
2022-09-13T17:42:56.308Z,1.02
2022-09-13T17:46:04.282Z,0.90
2022-09-13T17:49:06.631Z,0.90
2022-09-13T17:52:08.539Z,1.35
2022-09-13T17:55:10.919Z,1.23
2022-09-13T17:58:14.972Z,1.33
2022-09-13T18:01:17.420Z,1.20
2022-09-13T18:04:22.023Z,1.17
2022-09-13T18:07:24.094Z,1.20
2022-09-13T18:10:49.314Z,0.88
2022-09-13T18:13:48.949Z,1.05
2022-09-13T18:16:56.348Z,1.25
2022-09-13T18:19:58.890Z,1.05
2022-09-13T18:23:01.276Z,0.98
2022-09-13T18:26:11.112Z,1.05
2022-09-13T18:29:14.210Z,1.05
2022-09-13T18:32:16.669Z,1.10
2022-09-13T18:35:18.903Z,1.30
2022-09-13T18:38:20.949Z,1.30
2022-09-13T18:41:25.404Z,1.15
2022-09-13T18:44:30.625Z,1.10
2022-09-13T18:47:38.721Z,1.25
2022-09-13T18:50:44.942Z,1.40
2022-09-13T18:53:47.569Z,0.98
2022-09-13T18:56:50.169Z,1.17
2022-09-13T18:59:52.358Z,1.00
2022-09-13T19:03:11.279Z,1.23
2022-09-13T19:06:17.352Z,1.33
2022-09-13T19:09:22.793Z,1.40
2022-09-13T19:12:24.924Z,1.10
2022-09-13T19:15:26.900Z,1.00
2022-09-13T19:18:29.112Z,1.60
2022-09-13T19:21:32.594Z,1.80
2022-09-13T19:24:37.454Z,1.10
2022-09-13T19:27:39.348Z,1.87
2022-09-13T19:30:41.421Z,0.90
2022-09-13T19:33:44.673Z,0.90
2022-09-13T19:36:49.685Z,0.97
2022-09-13T19:39:51.682Z,0.90
2022-09-13T19:42:54.164Z,0.80
2022-09-13T19:46:01.183Z,1.13
2022-09-13T19:49:04.108Z,0.90
2022-09-13T19:52:06.014Z,1.00
2022-09-13T19:55:08.700Z,0.80
2022-09-13T19:58:10.927Z,0.70
2022-09-13T20:01:16.208Z,0.83
2022-09-13T20:04:21.549Z,1.00
2022-09-13T20:07:24.977Z,0.90
2022-09-13T20:10:27.273Z,1.30
2022-09-13T20:13:29.248Z,0.87
2022-09-13T20:16:34.294Z,1.00
2022-09-13T20:19:42.513Z,1.10
2022-09-13T20:22:46.898Z,1.00
2022-09-13T20:25:48.814Z,1.00
2022-09-13T20:28:57.798Z,0.90
2022-09-13T20:32:00.368Z,1.17
2022-09-13T20:35:02.296Z,0.93
2022-09-13T20:38:04.585Z,1.00
2022-09-13T20:41:16.259Z,1.17
2022-09-13T20:44:18.868Z,1.10
2022-09-13T20:47:21.114Z,1.00
2022-09-13T20:50:23.192Z,1.10
2022-09-13T20:53:25.891Z,1.20
2022-09-13T20:56:30.707Z,1.00
2022-09-13T20:59:32.790Z,1.10
2022-09-13T21:02:35.116Z,1.07
2022-09-13T21:05:37.864Z,1.00
2022-09-13T21:08:43.882Z,1.07
2022-09-13T21:11:46.292Z,1.00
2022-09-13T21:14:48.721Z,1.53
2022-09-13T21:17:50.733Z,0.80
2022-09-13T21:20:59.774Z,1.10
2022-09-13T21:24:04.564Z,1.23
2022-09-13T21:27:07.202Z,1.43
2022-09-13T21:30:09.463Z,1.20
2022-09-13T21:33:11.440Z,0.90
2022-09-13T21:36:13.583Z,1.20
2022-09-13T21:39:16.602Z,1.20
2022-09-13T21:42:18.583Z,1.33
2022-09-13T21:45:24.621Z,1.50
2022-09-13T21:48:28.643Z,0.93
2022-09-13T21:51:42.193Z,1.60
2022-09-13T21:54:44.210Z,1.20
2022-09-13T21:57:46.173Z,1.30
2022-09-13T22:00:48.204Z,1.07
2022-09-13T22:03:52.194Z,0.90
2022-09-13T22:06:54.700Z,1.10
2022-09-13T22:09:57.801Z,1.43
2022-09-13T22:12:59.660Z,1.17
2022-09-13T22:16:07.341Z,0.93
2022-09-13T22:19:15.165Z,1.20
2022-09-13T22:22:18.262Z,1.10
2022-09-13T22:25:20.345Z,1.03
2022-09-13T22:28:22.259Z,0.67
2022-09-13T22:31:29.701Z,0.87
2022-09-13T22:34:35.084Z,1.30
2022-09-13T22:37:37.330Z,1.10
2022-09-13T22:40:39.340Z,0.80
2022-09-13T22:43:42.177Z,1.00
2022-09-13T22:46:45.783Z,0.70
2022-09-13T22:49:47.720Z,1.00
2022-09-13T22:52:50.967Z,1.00
2022-09-13T22:55:53.555Z,1.00
2022-09-13T22:59:08.163Z,0.77
2022-09-13T23:02:10.155Z,1.40
2022-09-13T23:05:12.419Z,1.00
2022-09-13T23:08:14.393Z,1.00
2022-09-13T23:11:17.810Z,1.40
2022-09-13T23:14:20.547Z,0.87
2022-09-13T23:17:22.472Z,0.80
2022-09-13T23:20:24.791Z,1.23
2022-09-13T23:23:26.967Z,1.20
2022-09-13T23:26:30.129Z,0.87
2022-09-13T23:29:32.231Z,0.93
2022-09-13T23:32:34.567Z,0.87
2022-09-13T23:35:37.799Z,0.93
2022-09-13T23:38:40.615Z,0.97
2022-09-13T23:41:43.757Z,0.90
2022-09-13T23:44:45.697Z,1.10
2022-09-13T23:47:47.564Z,0.83
2022-09-13T23:50:49.700Z,0.93
2022-09-13T23:53:56.842Z,1.00
2022-09-13T23:56:59.304Z,1.10
